Time;durP1;ratioP1;P1;durP2;ratioP2;P2;SDS_P1;SDS_P2;PMS_P1;PMS_P2;Temp;Humidity;BMP_temperature;BMP_pressure;BME280_temperature;BME280_humidity;BME280_pressure;Samples;Min_cycle;Max_cycle;Signal;HPM_P1;HPM_P2
2021/05/28 00:01:56;;;;;;;27.80;9.73;;;11.40;99.90;;;;;;5013513;28;20468;-79
2021/05/28 00:04:23;;;;;;;15.17;9.00;;;11.50;99.90;;;;;;5010354;28;20475;-79
2021/05/28 00:06:50;;;;;;;12.47;8.60;;;11.40;99.90;;;;;;5013457;28;20471;-79
2021/05/28 00:09:17;;;;;;;14.23;8.50;;;11.40;99.90;;;;;;5010782;28;20453;-79
2021/05/28 00:11:43;;;;;;;14.03;10.10;;;11.40;99.90;;;;;;5010396;28;20938;-79
2021/05/28 00:14:11;;;;;;;14.20;9.97;;;11.30;99.90;;;;;;5011571;28;20560;-79
2021/05/28 00:16:38;;;;;;;13.40;9.23;;;11.20;99.90;;;;;;5012787;28;20439;-79
2021/05/28 00:19:05;;;;;;;10.87;9.77;;;11.20;99.90;;;;;;5010535;28;20457;-79
2021/05/28 00:21:33;;;;;;;16.07;9.37;;;11.10;99.90;;;;;;5012699;28;20468;-79
2021/05/28 00:24:00;;;;;;;19.20;10.73;;;11.20;99.90;;;;;;5012380;28;20461;-79
2021/05/28 00:26:27;;;;;;;17.57;9.80;;;11.20;99.90;;;;;;5006080;28;20436;-79
2021/05/28 00:28:54;;;;;;;14.43;9.80;;;11.20;99.90;;;;;;5012218;28;20812;-79
2021/05/28 00:31:21;;;;;;;10.97;8.50;;;11.30;99.90;;;;;;5011153;28;20439;-79
2021/05/28 00:33:48;;;;;;;10.93;8.73;;;11.20;99.90;;;;;;5010381;28;20491;-79
2021/05/28 00:36:16;;;;;;;15.93;9.50;;;11.20;99.90;;;;;;5012465;28;20523;-79
2021/05/28 00:38:44;;;;;;;11.60;9.73;;;11.10;99.90;;;;;;5011472;28;20457;-79
2021/05/28 00:41:12;;;;;;;13.23;8.80;;;11.00;99.90;;;;;;5011116;28;20456;-79
2021/05/28 00:43:39;;;;;;;11.60;8.20;;;11.00;99.90;;;;;;4994466;28;20433;-79
2021/05/28 00:46:06;;;;;;;15.70;9.07;;;11.00;99.90;;;;;;5011053;28;20935;-79
2021/05/28 00:48:33;;;;;;;10.83;9.33;;;10.90;99.90;;;;;;4993981;28;20452;-79
2021/05/28 00:51:00;;;;;;;14.60;10.77;;;10.90;99.90;;;;;;5009683;28;20811;-79
2021/05/28 00:53:28;;;;;;;12.97;9.50;;;10.80;99.90;;;;;;5012609;28;20531;-79
2021/05/28 00:55:56;;;;;;;14.37;9.27;;;10.80;99.90;;;;;;5010518;28;20451;-79
2021/05/28 00:58:24;;;;;;;25.77;10.10;;;10.70;99.90;;;;;;5011450;28;20555;-79
2021/05/28 01:00:51;;;;;;;14.00;9.70;;;10.80;99.90;;;;;;5012160;28;20467;-79
2021/05/28 01:03:19;;;;;;;15.50;10.17;;;10.70;99.90;;;;;;5012181;28;20436;-79
2021/05/28 01:05:46;;;;;;;19.23;9.30;;;10.70;99.90;;;;;;5004413;28;20476;-79
2021/05/28 01:08:13;;;;;;;14.27;9.60;;;10.70;99.90;;;;;;5012296;28;20455;-79
2021/05/28 01:10:40;;;;;;;13.50;9.10;;;10.60;99.90;;;;;;5002569;28;20468;-80
2021/05/28 01:13:10;;;;;;;15.87;10.17;;;10.60;99.90;;;;;;5011464;28;20460;-79
2021/05/28 01:15:38;;;;;;;15.03;10.50;;;10.60;99.90;;;;;;5011596;28;20552;-79
2021/05/28 01:18:05;;;;;;;14.53;9.20;;;10.60;99.90;;;;;;5011616;28;20447;-79
2021/05/28 01:20:32;;;;;;;10.60;8.80;;;10.50;99.90;;;;;;5005931;28;20480;-79
2021/05/28 01:23:01;;;;;;;13.23;9.67;;;10.50;99.90;;;;;;5011719;28;21005;-79
2021/05/28 01:25:29;;;;;;;16.83;8.90;;;10.40;99.90;;;;;;5008357;28;20468;-79
2021/05/28 01:27:56;;;;;;;17.13;8.90;;;10.40;99.90;;;;;;5011563;28;20871;-79
2021/05/28 01:30:24;;;;;;;16.43;8.70;;;10.40;99.90;;;;;;5011146;28;20456;-79
2021/05/28 01:32:55;;;;;;;15.57;10.07;;;10.30;99.90;;;;;;4994021;28;20464;-79
2021/05/28 01:35:22;;;;;;;14.50;8.20;;;10.20;99.90;;;;;;5009214;28;20507;-79
2021/05/28 01:37:50;;;;;;;9.97;7.47;;;10.20;99.90;;;;;;4993605;28;21041;-79
2021/05/28 01:40:19;;;;;;;10.60;8.20;;;10.10;99.90;;;;;;4992407;28;20468;-79
2021/05/28 01:42:47;;;;;;;9.67;6.97;;;10.00;99.90;;;;;;5011682;28;20460;-79
2021/05/28 01:45:15;;;;;;;10.20;8.33;;;10.00;99.90;;;;;;5010999;28;20503;-80
2021/05/28 01:47:42;;;;;;;11.13;7.32;;;9.90;99.90;;;;;;4993199;28;20451;-80
2021/05/28 01:50:11;;;;;;;8.73;6.70;;;9.70;99.90;;;;;;4991771;28;20296;-79
2021/05/28 01:52:38;;;;;;;9.50;7.97;;;9.60;99.90;;;;;;5010206;28;20441;-79
2021/05/28 01:55:09;;;;;;;11.83;7.90;;;9.50;99.90;;;;;;4975266;28;20481;-79
2021/05/28 01:57:36;;;;;;;10.30;8.00;;;9.50;99.90;;;;;;5011535;28;20483;-77
2021/05/28 02:00:09;;;;;;;10.10;7.30;;;9.50;99.90;;;;;;4993398;28;20978;-79
2021/05/28 02:02:37;;;;;;;11.65;7.95;;;9.40;99.90;;;;;;5009313;28;20459;-79
2021/05/28 02:05:07;;;;;;;12.53;8.70;;;9.30;99.90;;;;;;4993715;28;20563;-79
2021/05/28 02:07:36;;;;;;;13.20;8.47;;;9.20;99.90;;;;;;5011103;28;20454;-79
2021/05/28 02:10:04;;;;;;;11.60;8.13;;;9.20;99.90;;;;;;5009315;28;20472;-79
2021/05/28 02:12:31;;;;;;;8.05;6.93;;;9.20;99.90;;;;;;5011589;28;20197;-79
2021/05/28 02:14:59;;;;;;;11.25;7.32;;;9.30;99.90;;;;;;5010056;28;20698;-79
2021/05/28 02:17:26;;;;;;;8.48;6.28;;;9.20;99.90;;;;;;5011284;28;20214;-79
2021/05/28 02:19:57;;;;;;;10.98;7.47;;;9.10;99.90;;;;;;4991748;28;20226;-80
2021/05/28 02:22:24;;;;;;;11.88;7.60;;;9.00;99.90;;;;;;5011231;28;20212;-79
2021/05/28 02:24:51;;;;;;;10.48;7.88;;;8.90;99.90;;;;;;5006730;28;20227;-79
2021/05/28 02:27:19;;;;;;;10.75;7.65;;;8.90;99.90;;;;;;5003336;28;20576;-79
2021/05/28 02:29:50;;;;;;;11.98;7.53;;;8.80;99.90;;;;;;5010837;28;20567;-79
2021/05/28 02:32:16;;;;;;;12.25;8.13;;;8.80;99.90;;;;;;5011511;28;20187;-79
2021/05/28 02:34:43;;;;;;;10.30;8.30;;;8.80;99.90;;;;;;5009720;28;20220;-79
2021/05/28 02:37:11;;;;;;;10.90;7.15;;;8.80;99.90;;;;;;5011007;28;20218;-79
2021/05/28 02:39:37;;;;;;;7.70;6.90;;;8.90;99.90;;;;;;5009223;28;20217;-79
2021/05/28 02:42:05;;;;;;;13.38;7.80;;;8.90;99.90;;;;;;5010802;28;20207;-79
2021/05/28 02:44:32;;;;;;;11.75;8.48;;;8.80;99.90;;;;;;5010525;28;20233;-79
2021/05/28 02:46:58;;;;;;;10.85;8.30;;;8.70;99.90;;;;;;5009577;28;20201;-79
2021/05/28 02:49:25;;;;;;;10.88;8.07;;;8.70;99.90;;;;;;4998551;28;20219;-79
2021/05/28 02:51:52;;;;;;;15.25;8.18;;;8.70;99.90;;;;;;5011304;28;20188;-79
2021/05/28 02:54:19;;;;;;;12.27;8.30;;;8.70;99.90;;;;;;5010147;28;20278;-79
2021/05/28 02:56:46;;;;;;;9.45;6.85;;;8.70;99.90;;;;;;4999988;28;20698;-79
2021/05/28 02:59:13;;;;;;;11.05;7.70;;;8.60;99.90;;;;;;5013678;28;20226;-79
2021/05/28 03:01:40;;;;;;;16.25;8.38;;;8.60;99.90;;;;;;5014682;28;20221;-79
2021/05/28 03:04:07;;;;;;;10.30;9.00;;;8.70;99.90;;;;;;5001199;28;20688;-79
2021/05/28 03:06:34;;;;;;;9.45;7.32;;;8.70;99.90;;;;;;5004795;28;20188;-79
2021/05/28 03:09:02;;;;;;;11.38;8.82;;;8.70;99.90;;;;;;5013526;28;20310;-79
2021/05/28 03:11:28;;;;;;;8.82;7.25;;;8.70;99.90;;;;;;5011605;28;20190;-79
2021/05/28 03:13:55;;;;;;;12.20;7.38;;;8.70;99.90;;;;;;5013630;28;20624;-79
2021/05/28 03:16:22;;;;;;;11.95;8.00;;;8.70;99.90;;;;;;4996582;28;20655;-79
2021/05/28 03:18:58;;;;;;;13.63;7.55;;;8.70;99.90;;;;;;4996154;28;20306;-79
2021/05/28 03:24:00;;;;;;;9.60;7.10;;;8.60;99.90;;;;;;5013323;28;20222;-79
2021/05/28 03:26:31;;;;;;;8.82;6.63;;;8.60;99.90;;;;;;4994856;28;20673;-79
2021/05/28 03:28:59;;;;;;;11.45;7.40;;;8.60;99.90;;;;;;5013419;28;20620;-80
2021/05/28 03:31:26;;;;;;;11.70;6.75;;;8.60;99.90;;;;;;5013484;28;20205;-80
2021/05/28 03:33:54;;;;;;;12.55;7.65;;;8.60;99.90;;;;;;4995624;28;20214;-79
2021/05/28 03:36:21;;;;;;;10.60;7.30;;;8.60;99.90;;;;;;5011870;28;20187;-80
2021/05/28 03:38:48;;;;;;;8.18;6.13;;;8.60;99.90;;;;;;5003230;28;20301;-79
2021/05/28 03:41:15;;;;;;;9.13;6.03;;;8.60;99.90;;;;;;5008793;28;20180;-79
2021/05/28 03:43:43;;;;;;;8.32;5.90;;;8.50;99.90;;;;;;5013226;28;20241;-79
2021/05/28 03:46:10;;;;;;;9.05;6.72;;;8.50;99.90;;;;;;4995697;28;20252;-79
2021/05/28 03:48:37;;;;;;;9.88;6.72;;;8.50;99.90;;;;;;4985824;28;20569;-79
2021/05/28 03:51:04;;;;;;;13.43;6.40;;;8.40;99.90;;;;;;5004344;28;20649;-79
2021/05/28 03:53:31;;;;;;;11.80;6.70;;;8.40;99.90;;;;;;5012854;28;20226;-79
2021/05/28 03:55:59;;;;;;;9.88;7.13;;;8.50;99.90;;;;;;4994432;28;20273;-79
2021/05/28 03:58:26;;;;;;;9.85;6.68;;;8.50;99.90;;;;;;5012744;28;20301;-79
2021/05/28 04:00:53;;;;;;;11.43;7.45;;;8.40;99.90;;;;;;5013674;28;20282;-79
2021/05/28 04:03:20;;;;;;;10.30;6.10;;;8.30;99.90;;;;;;5012022;28;20202;-79
2021/05/28 04:05:47;;;;;;;7.45;6.30;;;8.30;99.90;;;;;;5011753;28;20731;-80
2021/05/28 04:08:19;;;;;;;7.00;5.55;;;8.30;99.90;;;;;;4995303;28;20309;-80
2021/05/28 04:10:47;;;;;;;7.68;6.18;;;8.30;99.90;;;;;;5009265;28;20211;-79
2021/05/28 04:13:14;;;;;;;9.70;6.50;;;8.30;99.90;;;;;;5013131;28;20240;-79
2021/05/28 04:15:41;;;;;;;10.55;7.60;;;8.30;99.90;;;;;;5012622;28;20583;-79
2021/05/28 04:18:08;;;;;;;7.35;5.90;;;8.20;99.90;;;;;;4994895;28;20206;-79
2021/05/28 04:20:37;;;;;;;11.40;7.00;;;8.20;99.90;;;;;;5001067;28;20566;-80
2021/05/28 04:23:03;;;;;;;9.48;7.55;;;8.20;99.90;;;;;;4995151;28;20216;-80
2021/05/28 04:25:30;;;;;;;7.93;5.90;;;8.30;99.90;;;;;;4999477;28;20221;-79
2021/05/28 04:27:57;;;;;;;8.20;5.82;;;8.30;99.90;;;;;;5008785;28;20301;-79
2021/05/28 04:30:24;;;;;;;8.77;7.78;;;8.30;99.90;;;;;;5012474;28;20614;-79
2021/05/28 04:32:52;;;;;;;11.43;7.70;;;8.30;99.90;;;;;;5010786;28;20671;-79
2021/05/28 04:35:20;;;;;;;13.20;8.32;;;8.40;99.90;;;;;;5011990;28;20318;-79
2021/05/28 04:37:47;;;;;;;8.45;7.38;;;8.50;99.90;;;;;;5012565;28;20218;-79
2021/05/28 04:40:15;;;;;;;10.45;7.40;;;8.70;99.90;;;;;;4992312;28;20305;-79
2021/05/28 04:42:42;;;;;;;10.40;7.18;;;8.70;99.90;;;;;;5012661;28;20213;-79
2021/05/28 04:45:10;;;;;;;12.18;7.57;;;8.70;99.90;;;;;;5012306;28;20217;-80
2021/05/28 04:47:39;;;;;;;13.65;7.32;;;8.60;99.90;;;;;;5011211;28;20203;-79
2021/05/28 04:50:07;;;;;;;12.23;8.10;;;8.60;99.90;;;;;;5009195;28;20272;-79
2021/05/28 04:52:34;;;;;;;9.93;7.45;;;8.60;99.90;;;;;;5012503;28;20548;-79
2021/05/28 04:55:02;;;;;;;9.27;7.90;;;8.80;99.90;;;;;;5009792;28;20220;-79
2021/05/28 04:57:32;;;;;;;12.70;7.82;;;8.90;99.90;;;;;;5012051;28;20617;-79
2021/05/28 04:59:59;;;;;;;11.68;8.13;;;8.90;99.90;;;;;;5011914;28;20257;-79
2021/05/28 05:02:26;;;;;;;16.58;9.75;;;8.90;99.90;;;;;;4994707;28;20700;-80
2021/05/28 05:04:53;;;;;;;11.48;9.40;;;9.00;99.90;;;;;;5007049;28;20297;-79
2021/05/28 05:07:20;;;;;;;10.13;7.80;;;9.10;99.90;;;;;;5004525;28;20453;-80
2021/05/28 05:09:48;;;;;;;10.38;8.80;;;9.20;99.90;;;;;;4991887;28;20227;-79
2021/05/28 05:12:15;;;;;;;12.48;8.13;;;9.30;99.90;;;;;;4994440;28;20555;-79
2021/05/28 05:14:42;;;;;;;12.27;7.95;;;9.30;99.90;;;;;;5011640;28;20290;-80
2021/05/28 05:17:12;;;;;;;14.05;9.35;;;9.50;99.90;;;;;;5011813;28;20212;-79
2021/05/28 05:19:39;;;;;;;13.30;7.90;;;9.60;99.90;;;;;;5009150;28;20577;-79
2021/05/28 05:22:09;;;;;;;11.23;7.90;;;9.60;99.90;;;;;;5011060;28;20262;-79
2021/05/28 05:24:36;;;;;;;10.63;7.40;;;9.70;99.90;;;;;;4997958;28;20453;-79
2021/05/28 05:27:04;;;;;;;13.47;7.70;;;9.70;99.90;;;;;;5000959;28;20839;-80
2021/05/28 05:29:31;;;;;;;12.13;7.27;;;9.90;99.90;;;;;;5010234;28;20999;-79
2021/05/28 05:31:58;;;;;;;12.57;7.83;;;9.90;99.90;;;;;;5011960;28;20466;-80
2021/05/28 05:34:25;;;;;;;9.43;8.50;;;9.90;99.90;;;;;;5008352;28;20941;-79
2021/05/28 05:36:55;;;;;;;14.23;7.60;;;10.00;99.90;;;;;;5008626;28;20466;-80
2021/05/28 05:39:22;;;;;;;10.80;7.83;;;10.10;99.90;;;;;;4992989;28;20479;-79
2021/05/28 05:41:49;;;;;;;10.67;8.00;;;10.10;99.90;;;;;;4998745;28;20437;-79
2021/05/28 05:44:16;;;;;;;12.80;8.13;;;10.10;99.90;;;;;;4976800;28;20560;-79
2021/05/28 05:46:44;;;;;;;13.73;9.83;;;10.30;99.90;;;;;;4994185;28;20465;-79
2021/05/28 05:49:11;;;;;;;14.07;8.73;;;10.30;99.90;;;;;;4994405;28;21670;-79
2021/05/28 05:51:38;;;;;;;22.20;15.03;;;10.30;99.90;;;;;;5011060;28;20472;-79
2021/05/28 05:54:07;;;;;;;24.20;14.20;;;10.40;99.90;;;;;;5010421;28;20469;-79
2021/05/28 05:56:34;;;;;;;26.07;20.43;;;10.60;99.90;;;;;;4992505;28;20436;-80
2021/05/28 05:59:04;;;;;;;27.00;19.90;;;10.60;99.90;;;;;;4993130;28;20457;-79
2021/05/28 06:01:34;;;;;;;25.90;20.03;;;10.60;99.90;;;;;;5011563;28;20528;-79
2021/05/28 06:04:01;;;;;;;31.53;21.63;;;10.50;99.90;;;;;;5009034;28;20484;-79
2021/05/28 06:06:28;;;;;;;30.17;22.30;;;10.50;99.90;;;;;;5011630;28;20433;-79
2021/05/28 06:08:55;;;;;;;34.30;22.23;;;10.60;99.90;;;;;;4992267;28;20461;-79
2021/05/28 06:11:22;;;;;;;31.87;22.70;;;10.80;99.90;;;;;;5008931;28;21010;-79
2021/05/28 06:13:51;;;;;;;34.70;24.20;;;10.70;99.90;;;;;;4994228;28;20920;-79
2021/05/28 06:16:17;;;;;;;30.63;21.10;;;10.70;99.90;;;;;;5010821;28;20429;-79
2021/05/28 06:18:44;;;;;;;35.30;24.53;;;10.70;99.90;;;;;;5008616;28;21026;-79
2021/05/28 06:21:14;;;;;;;32.63;23.60;;;10.80;99.90;;;;;;5011177;28;20455;-79
2021/05/28 06:23:42;;;;;;;33.90;25.67;;;10.80;99.90;;;;;;5010986;28;20979;-79
2021/05/28 06:26:09;;;;;;;32.43;24.60;;;10.80;99.90;;;;;;5009671;28;20441;-79
2021/05/28 06:28:39;;;;;;;34.33;25.17;;;10.80;99.90;;;;;;5010693;28;20464;-79
2021/05/28 06:31:08;;;;;;;41.03;26.90;;;10.90;99.90;;;;;;4993557;28;20435;-79
2021/05/28 06:33:38;;;;;;;39.03;25.93;;;11.00;99.90;;;;;;5010548;28;20851;-79
2021/05/28 06:36:05;;;;;;;36.07;24.63;;;11.00;99.90;;;;;;4996655;28;20524;-79
2021/05/28 06:38:32;;;;;;;36.43;25.23;;;11.00;99.90;;;;;;5014399;28;21083;-79
2021/05/28 06:40:59;;;;;;;35.40;26.17;;;11.00;99.90;;;;;;5012053;28;20449;-79
2021/05/28 06:43:26;;;;;;;38.20;26.80;;;11.00;99.90;;;;;;4996769;28;20460;-79
2021/05/28 06:45:53;;;;;;;34.87;26.73;;;11.00;99.90;;;;;;5014650;28;20450;-79
2021/05/28 06:48:20;;;;;;;42.47;28.40;;;11.10;99.90;;;;;;5007862;28;20917;-79
2021/05/28 06:50:47;;;;;;;38.27;27.57;;;11.20;99.90;;;;;;5012880;28;20495;-79
2021/05/28 06:53:14;;;;;;;39.27;26.23;;;11.30;99.90;;;;;;4995650;28;20441;-79
2021/05/28 06:55:41;;;;;;;37.13;25.73;;;11.40;99.90;;;;;;4992246;28;20474;-79
2021/05/28 06:58:09;;;;;;;32.93;27.40;;;11.60;99.90;;;;;;4994899;28;20819;-79
2021/05/28 07:00:39;;;;;;;28.40;23.60;;;11.80;99.90;;;;;;4996429;28;20829;-79
2021/05/28 07:03:06;;;;;;;31.40;24.00;;;11.90;99.90;;;;;;5014449;28;20965;-79
2021/05/28 07:05:33;;;;;;;30.83;21.27;;;12.10;99.90;;;;;;5012666;28;20916;-79
2021/05/28 07:08:00;;;;;;;25.27;21.40;;;12.30;99.90;;;;;;5014120;28;20457;-79
2021/05/28 07:10:28;;;;;;;25.20;20.10;;;12.40;99.90;;;;;;5011720;28;20468;-79
2021/05/28 07:12:55;;;;;;;30.40;22.87;;;12.40;99.90;;;;;;5014237;28;20495;-79
2021/05/28 07:15:22;;;;;;;30.13;23.50;;;12.40;99.90;;;;;;5013857;28;20468;-79
2021/05/28 07:17:48;;;;;;;31.70;23.20;;;12.20;99.90;;;;;;5013976;28;20483;-79
2021/05/28 07:20:16;;;;;;;32.13;23.80;;;12.20;99.90;;;;;;5011987;28;20477;-79
2021/05/28 07:22:43;;;;;;;26.60;23.50;;;12.30;99.90;;;;;;5014223;28;20515;-79
2021/05/28 07:25:12;;;;;;;29.50;24.40;;;12.30;99.90;;;;;;4986954;28;20557;-79
2021/05/28 07:27:39;;;;;;;40.60;24.80;;;12.40;99.90;;;;;;5003190;28;20460;-79
2021/05/28 07:30:08;;;;;;;23.63;19.73;;;12.60;99.90;;;;;;4995390;28;20461;-79
2021/05/28 07:32:37;;;;;;;27.17;19.60;;;12.90;99.90;;;;;;4996436;28;20476;-80
2021/05/28 07:35:05;;;;;;;27.77;20.00;;;13.10;99.90;;;;;;5011480;28;20523;-79
2021/05/28 07:37:32;;;;;;;21.70;17.10;;;13.30;99.90;;;;;;5013951;28;20560;-79
2021/05/28 07:39:59;;;;;;;32.80;19.60;;;13.50;99.90;;;;;;5010669;28;20860;-79
2021/05/28 07:42:27;;;;;;;31.63;20.90;;;13.50;99.90;;;;;;5013877;28;20438;-79
2021/05/28 07:44:54;;;;;;;22.53;18.33;;;13.50;99.90;;;;;;5006671;28;20469;-79
2021/05/28 07:47:21;;;;;;;25.63;18.30;;;13.50;99.90;;;;;;4995493;28;20568;-79
2021/05/28 07:49:48;;;;;;;18.30;14.90;;;13.80;99.90;;;;;;5011628;28;20472;-79
2021/05/28 07:52:19;;;;;;;19.87;16.23;;;13.90;99.90;;;;;;4996515;28;20497;-79
2021/05/28 07:54:45;;;;;;;19.00;15.10;;;14.00;99.90;;;;;;4994007;28;20478;-79
2021/05/28 07:57:13;;;;;;;19.90;14.60;;;14.10;99.90;;;;;;5012978;28;20511;-79
2021/05/28 07:59:42;;;;;;;14.93;13.37;;;14.20;99.90;;;;;;4995655;28;20496;-79
2021/05/28 08:02:09;;;;;;;16.70;14.00;;;14.20;99.90;;;;;;5012936;28;20435;-79
2021/05/28 08:04:36;;;;;;;19.23;13.77;;;14.30;99.90;;;;;;4992750;28;20475;-79
2021/05/28 08:07:03;;;;;;;15.30;13.00;;;14.40;99.90;;;;;;4993716;28;20974;-79
2021/05/28 08:09:30;;;;;;;16.77;15.00;;;14.50;99.90;;;;;;5012751;28;20987;-79
2021/05/28 08:12:00;;;;;;;13.80;12.40;;;14.40;99.90;;;;;;5011555;28;20446;-80
2021/05/28 08:14:27;;;;;;;16.23;14.53;;;14.40;99.90;;;;;;4994877;28;20562;-79
2021/05/28 08:16:54;;;;;;;16.17;14.57;;;14.40;99.90;;;;;;4995535;28;20985;-79
2021/05/28 08:19:24;;;;;;;16.43;14.03;;;14.40;99.90;;;;;;5010870;28;20510;-79
2021/05/28 08:21:51;;;;;;;15.97;14.20;;;14.20;99.90;;;;;;4993516;28;20474;-79
2021/05/28 08:24:21;;;;;;;20.50;14.50;;;14.10;99.90;;;;;;5004813;28;20469;-79
2021/05/28 08:26:48;;;;;;;19.07;15.40;;;14.10;99.90;;;;;;5010216;28;20471;-79
2021/05/28 08:29:18;;;;;;;15.90;13.93;;;14.10;99.90;;;;;;4999505;28;20592;-79
2021/05/28 08:31:45;;;;;;;15.70;13.97;;;14.20;99.90;;;;;;4992298;28;20463;-79
2021/05/28 08:34:12;;;;;;;17.00;14.63;;;14.30;99.90;;;;;;4995714;28;20475;-79
2021/05/28 08:36:39;;;;;;;17.97;14.50;;;14.40;99.90;;;;;;5010043;28;20448;-79
2021/05/28 08:39:06;;;;;;;16.60;14.03;;;14.60;99.90;;;;;;5011939;28;20463;-79
2021/05/28 08:41:35;;;;;;;16.23;13.30;;;14.60;99.90;;;;;;5010396;28;20451;-79
2021/05/28 08:44:03;;;;;;;16.20;13.70;;;14.60;99.90;;;;;;5011883;28;20469;-79
2021/05/28 08:46:30;;;;;;;18.63;16.03;;;14.70;99.90;;;;;;5012595;28;20803;-79
2021/05/28 08:48:57;;;;;;;14.93;12.67;;;15.00;99.90;;;;;;4992301;28;20552;-80
2021/05/28 08:51:24;;;;;;;15.63;13.97;;;14.90;99.90;;;;;;4994622;28;20433;-79
2021/05/28 08:53:51;;;;;;;18.40;13.00;;;14.80;99.90;;;;;;5012063;28;20485;-79
2021/05/28 08:56:18;;;;;;;14.57;13.23;;;14.80;99.90;;;;;;5010219;28;20443;-79
2021/05/28 08:58:48;;;;;;;14.47;11.97;;;14.70;99.90;;;;;;4993829;28;21044;-79
2021/05/28 09:01:15;;;;;;;16.77;12.97;;;14.70;99.90;;;;;;5012239;28;20526;-80
2021/05/28 09:03:43;;;;;;;17.67;12.93;;;14.80;99.90;;;;;;5011488;28;20727;-80
2021/05/28 09:06:17;;;;;;;15.23;13.60;;;14.90;99.90;;;;;;5010956;28;20528;-79
2021/05/28 09:08:45;;;;;;;17.80;13.67;;;15.10;99.90;;;;;;5010779;28;20539;-79
2021/05/28 09:11:16;;;;;;;15.67;13.10;;;15.20;99.90;;;;;;5010110;28;20536;-79
2021/05/28 09:13:46;;;;;;;14.50;12.87;;;15.20;99.90;;;;;;4994448;28;20449;-79
2021/05/28 09:16:15;;;;;;;14.17;12.60;;;15.10;99.90;;;;;;4992721;28;20426;-79
2021/05/28 09:18:51;;;;;;;16.97;12.33;;;15.10;99.90;;;;;;4998186;28;20467;-79
2021/05/28 09:21:28;;;;;;;16.20;13.17;;;15.20;99.90;;;;;;5011750;28;20445;-79
2021/05/28 09:23:55;;;;;;;14.93;12.60;;;15.20;99.90;;;;;;5011178;28;20471;-79
2021/05/28 09:26:26;;;;;;;21.90;14.30;;;15.20;99.90;;;;;;5009049;28;20449;-79
2021/05/28 09:28:56;;;;;;;13.57;11.87;;;15.30;99.90;;;;;;5010860;28;20468;-79
2021/05/28 09:31:25;;;;;;;16.07;14.37;;;15.40;99.90;;;;;;4994267;28;20540;-79
2021/05/28 09:33:54;;;;;;;20.80;14.27;;;15.60;99.90;;;;;;5009827;28;20478;-79
2021/05/28 09:36:25;;;;;;;13.83;12.40;;;15.80;99.90;;;;;;5011833;28;20537;-79
2021/05/28 09:38:57;;;;;;;16.60;14.73;;;15.80;99.90;;;;;;4993766;28;20789;-79
2021/05/28 09:41:49;;;;;;;17.67;12.93;;;15.80;99.90;;;;;;5010114;28;20559;-79
2021/05/28 09:44:27;;;;;;;12.57;11.27;;;15.80;99.90;;;;;;5010929;28;20543;-79
2021/05/28 09:47:04;;;;;;;13.17;11.30;;;15.80;99.90;;;;;;4996507;28;20468;-80
2021/05/28 09:49:37;;;;;;;14.37;12.83;;;16.00;99.90;;;;;;5008816;28;20471;-79
2021/05/28 09:52:24;;;;;;;11.80;10.50;;;;;;;;;;5010745;28;20475;-79
2021/05/28 09:55:03;;;;;;;13.50;10.43;;;16.40;99.90;;;;;;5010707;28;20511;-80
2021/05/28 09:57:33;;;;;;;13.27;10.73;;;16.70;99.80;;;;;;4988628;28;20555;-77
2021/05/28 10:00:20;;;;;;;13.50;10.77;;;16.70;97.10;;;;;;5011747;28;20453;-79
2021/05/28 10:02:49;;;;;;;10.80;9.50;;;16.80;95.40;;;;;;4987287;28;20527;-79
2021/05/28 10:05:25;;;;;;;11.30;9.57;;;16.80;93.70;;;;;;4993250;28;20487;-79
2021/05/28 10:07:53;;;;;;;11.20;9.60;;;16.60;96.70;;;;;;5000785;28;20453;-79
2021/05/28 10:10:23;;;;;;;11.20;9.80;;;16.60;97.00;;;;;;5002213;28;20477;-79
2021/05/28 10:12:50;;;;;;;11.83;8.50;;;16.50;98.30;;;;;;4995077;28;20440;-79
2021/05/28 10:15:17;;;;;;;11.70;8.60;;;16.40;96.00;;;;;;4994202;28;20557;-79
2021/05/28 10:17:44;;;;;;;10.33;8.27;;;16.30;97.80;;;;;;4995930;28;20536;-79
2021/05/28 10:20:11;;;;;;;10.17;9.03;;;16.30;97.20;;;;;;4995111;28;20905;-79
2021/05/28 10:22:41;;;;;;;11.37;9.40;;;16.20;95.60;;;;;;4996016;28;20496;-79
2021/05/28 10:25:09;;;;;;;9.90;7.83;;;16.10;95.30;;;;;;5004902;28;20476;-79
2021/05/28 10:27:36;;;;;;;14.63;10.13;;;16.10;97.70;;;;;;5000062;28;20446;-79
2021/05/28 10:30:13;;;;;;;9.50;8.50;;;15.90;97.00;;;;;;4995246;28;20545;-79
2021/05/28 10:32:40;;;;;;;9.90;9.00;;;16.10;95.80;;;;;;4995627;28;20521;-80
2021/05/28 10:35:17;;;;;;;9.60;8.60;;;16.20;96.50;;;;;;4993575;28;20491;-79
2021/05/28 10:37:45;;;;;;;10.53;9.47;;;16.30;96.70;;;;;;4997090;28;20488;-79
2021/05/28 10:40:24;;;;;;;9.53;8.53;;;16.30;94.20;;;;;;4993517;28;20563;-79
2021/05/28 10:43:06;;;;;;;9.77;8.77;;;16.20;95.80;;;;;;5008206;28;20482;-80
2021/05/28 10:45:54;;;;;;;12.80;8.00;;;16.10;95.00;;;;;;5012968;28;20978;-79
2021/05/28 10:48:40;;;;;;;9.73;8.67;;;16.20;94.60;;;;;;5013516;28;20507;-79
2021/05/28 10:51:22;;;;;;;9.30;8.27;;;16.10;94.80;;;;;;4996118;28;20452;-79
2021/05/28 10:53:52;;;;;;;10.63;7.53;;;16.10;93.70;;;;;;5014532;28;20468;-80
2021/05/28 10:56:42;;;;;;;9.67;7.37;;;16.20;95.30;;;;;;5012727;28;20872;-80
2021/05/28 10:59:16;;;;;;;9.83;8.50;;;16.50;92.40;;;;;;4985028;28;20460;-79
2021/05/28 11:01:51;;;;;;;10.27;8.00;;;16.80;91.50;;;;;;5014625;28;20462;-79
2021/05/28 11:04:23;;;;;;;10.87;9.60;;;17.10;92.90;;;;;;4998111;28;20877;-80
2021/05/28 11:06:56;;;;;;;12.17;8.07;;;17.10;90.00;;;;;;5013806;28;20823;-79
2021/05/28 11:09:39;;;;;;;11.07;9.60;;;16.80;90.00;;;;;;4997455;28;20469;-80
2021/05/28 11:12:10;;;;;;;11.60;8.30;;;16.90;94.80;;;;;;4996637;28;20946;-79
2021/05/28 11:14:56;;;;;;;10.73;8.50;;;16.90;92.70;;;;;;5013560;28;20615;-79
2021/05/28 11:17:23;;;;;;;15.77;9.23;;;17.10;95.40;;;;;;5014585;28;20962;-79
2021/05/28 11:19:56;;;;;;;9.20;8.00;;;17.00;93.00;;;;;;5012113;28;20515;-79
2021/05/28 11:22:30;;;;;;;9.13;8.20;;;16.90;90.90;;;;;;5014179;28;20544;-79
2021/05/28 11:25:00;;;;;;;9.23;8.10;;;16.70;90.40;;;;;;4992524;28;20478;-79
2021/05/28 11:27:27;;;;;;;10.90;7.97;;;16.60;90.30;;;;;;5010456;28;20453;-80
2021/05/28 11:30:03;;;;;;;9.27;8.00;;;16.50;90.50;;;;;;5014136;28;20468;-79
2021/05/28 11:32:34;;;;;;;10.03;8.83;;;16.50;91.10;;;;;;5014689;28;20437;-79
2021/05/28 11:35:20;;;;;;;9.00;8.07;;;16.40;91.90;;;;;;5011753;28;20477;-80
2021/05/28 11:38:04;;;;;;;9.83;7.60;;;16.70;94.50;;;;;;5003003;28;20449;-79
2021/05/28 11:40:34;;;;;;;8.87;7.43;;;16.90;93.10;;;;;;5002532;28;20476;-79
2021/05/28 11:43:18;;;;;;;9.73;8.83;;;17.20;89.70;;;;;;5003315;28;20487;-79
2021/05/28 11:45:47;;;;;;;10.87;9.00;;;17.30;90.10;;;;;;5013903;28;20476;-79
2021/05/28 11:48:19;;;;;;;9.50;7.53;;;17.30;88.30;;;;;;5011483;28;20899;-79
2021/05/28 11:50:48;;;;;;;8.97;7.77;;;17.30;87.40;;;;;;4991477;28;20471;-79
2021/05/28 11:53:16;;;;;;;11.20;8.40;;;17.40;90.00;;;;;;5013495;28;20428;-79
2021/05/28 11:55:54;;;;;;;7.90;6.60;;;17.50;88.60;;;;;;4988275;28;20501;-80
2021/05/28 11:58:23;;;;;;;9.80;8.50;;;17.60;83.20;;;;;;4982682;28;20497;-79
2021/05/28 12:00:52;;;;;;;9.57;8.40;;;17.70;85.80;;;;;;5012180;28;20449;-79
2021/05/28 12:03:20;;;;;;;8.37;7.20;;;17.60;83.00;;;;;;4996292;28;20445;-79
2021/05/28 12:05:50;;;;;;;9.53;7.87;;;17.60;83.70;;;;;;5012862;28;20473;-79
2021/05/28 12:08:24;;;;;;;7.30;6.20;;;17.70;85.70;;;;;;5012359;28;20456;-79
2021/05/28 12:10:57;;;;;;;7.23;6.53;;;17.80;83.50;;;;;;5010859;28;21019;-80
2021/05/28 12:13:32;;;;;;;10.43;7.97;;;18.00;80.50;;;;;;5012799;28;20437;-79
2021/05/28 12:16:07;;;;;;;9.70;7.23;;;17.90;80.60;;;;;;5012794;28;20433;-79
2021/05/28 12:18:42;;;;;;;7.13;6.53;;;18.00;78.10;;;;;;5010681;28;20465;-79
2021/05/28 12:21:10;;;;;;;9.33;6.53;;;18.10;78.20;;;;;;5012814;28;20486;-79
2021/05/28 12:23:47;;;;;;;8.37;5.90;;;18.20;77.50;;;;;;5012387;28;20520;-80
2021/05/28 12:26:21;;;;;;;8.40;6.73;;;18.10;75.20;;;;;;5011316;28;20443;-79
2021/05/28 12:28:55;;;;;;;10.47;7.00;;;18.10;80.40;;;;;;4994850;28;20491;-79
2021/05/28 12:31:27;;;;;;;7.63;6.03;;;18.20;74.00;;;;;;4995898;28;20961;-79
2021/05/28 12:34:02;;;;;;;7.50;6.30;;;18.30;75.20;;;;;;4994659;28;20469;-79
2021/05/28 12:36:34;;;;;;;9.17;6.97;;;18.10;74.70;;;;;;5008581;28;20449;-80
2021/05/28 12:39:11;;;;;;;5.60;5.07;;;18.10;77.00;;;;;;5011718;28;20469;-79
2021/05/28 12:41:42;;;;;;;5.87;5.00;;;18.20;75.70;;;;;;4993512;28;21014;-79
2021/05/28 12:44:10;;;;;;;6.77;6.17;;;18.40;73.30;;;;;;4994199;28;20474;-79
2021/05/28 12:46:38;;;;;;;6.80;5.77;;;18.40;73.50;;;;;;4993439;28;20861;-79
2021/05/28 12:49:11;;;;;;;6.97;5.90;;;18.50;70.80;;;;;;5006243;28;20912;-79
2021/05/28 12:51:48;;;;;;;8.00;5.60;;;18.50;75.60;;;;;;5005030;28;20946;-79